Time;durP1;ratioP1;P1;durP2;ratioP2;P2;SDS_P1;SDS_P2;PMS_P1;PMS_P2;Temp;Humidity;BMP_temperature;BMP_pressure;BME280_temperature;BME280_humidity;BME280_pressure;Samples;Min_cycle;Max_cycle;Signal;HPM_P1;HPM_P2
2021/04/01 00:00:46;;;;;;;;;;;24.10;49.00;;;;;;4975686;28;20052;-58
2021/04/01 00:03:13;;;;;;;;;;;24.10;49.10;;;;;;4975603;28;19913;-58
2021/04/01 00:05:38;;;;;;;;;;;24.10;49.10;;;;;;4975563;28;20011;-58
2021/04/01 00:08:04;;;;;;;;;;;24.10;49.00;;;;;;4975641;28;19949;-59
2021/04/01 00:10:32;;;;;;;;;;;24.10;49.00;;;;;;4975679;28;19910;-59
2021/04/01 00:12:58;;;;;;;;;;;24.10;49.00;;;;;;4975469;28;20000;-59
2021/04/01 00:15:24;;;;;;;;;;;24.10;49.10;;;;;;4975524;28;20056;-58
2021/04/01 00:17:50;;;;;;;;;;;24.10;49.10;;;;;;4975356;28;19917;-59
2021/04/01 00:20:16;;;;;;;;;;;24.10;49.10;;;;;;4975412;28;19910;-59
2021/04/01 00:22:42;;;;;;;;;;;24.10;49.10;;;;;;4975417;28;19906;-59
2021/04/01 00:25:09;;;;;;;;;;;24.10;49.20;;;;;;4975079;28;20036;-58
2021/04/01 00:27:34;;;;;;;;;;;24.10;49.20;;;;;;4975201;28;19910;-59
2021/04/01 00:30:01;;;;;;;;;;;24.10;49.20;;;;;;4975406;28;19906;-58
2021/04/01 00:32:27;;;;;;;;;;;24.00;49.10;;;;;;4975475;28;19910;-58
2021/04/01 00:34:52;;;;;;;;;;;24.00;49.10;;;;;;4975116;28;19976;-59
2021/04/01 00:37:18;;;;;;;;;;;24.00;49.10;;;;;;4975363;28;20265;-58
2021/04/01 00:39:44;;;;;;;;;;;24.00;49.10;;;;;;4975050;28;19910;-58
2021/04/01 00:42:10;;;;;;;;;;;24.00;49.20;;;;;;4975085;28;19910;-59
2021/04/01 00:44:36;;;;;;;;;;;24.10;49.20;;;;;;4941640;28;19913;-59
2021/04/01 00:47:05;;;;;;;;;;;24.00;49.10;;;;;;4975164;28;19961;-58
2021/04/01 00:49:31;;;;;;;;;;;24.00;49.20;;;;;;4975404;28;19945;-59
2021/04/01 00:51:57;;;;;;;;;;;24.00;49.20;;;;;;4975037;28;19945;-59
2021/04/01 00:54:23;;;;;;;;;;;24.00;49.10;;;;;;4974870;28;19906;-58
2021/04/01 00:56:49;;;;;;;;;;;24.00;49.20;;;;;;4975001;28;19957;-58
2021/04/01 00:59:14;;;;;;;;;;;24.00;49.10;;;;;;4974801;28;19964;-58
2021/04/01 01:01:51;;;;;;;;;;;24.00;49.10;;;;;;4974834;28;19914;-59
2021/04/01 01:04:17;;;;;;;;;;;24.00;49.10;;;;;;4974514;28;19918;-58
2021/04/01 01:06:43;;;;;;;;;;;24.00;49.20;;;;;;4974445;28;20364;-58
2021/04/01 01:09:09;;;;;;;;;;;24.00;49.10;;;;;;4974441;28;19926;-59
2021/04/01 01:11:36;;;;;;;;;;;24.00;49.10;;;;;;4974390;28;19910;-58
2021/04/01 01:14:03;;;;;;;;;;;24.00;49.20;;;;;;4973558;28;20276;-58
2021/04/01 01:16:29;;;;;;;;;;;24.00;49.10;;;;;;4974489;28;19917;-58
2021/04/01 01:18:55;;;;;;;;;;;24.00;49.10;;;;;;4956948;28;19906;-58
2021/04/01 01:21:21;;;;;;;;;;;24.00;49.10;;;;;;4974549;28;19910;-58
2021/04/01 01:23:48;;;;;;;;;;;24.00;49.10;;;;;;4974393;28;19914;-59
2021/04/01 01:26:14;;;;;;;;;;;24.00;49.10;;;;;;4974782;28;19910;-58
2021/04/01 01:28:40;;;;;;;;;;;24.00;49.20;;;;;;4957057;28;19906;-58
2021/04/01 01:31:06;;;;;;;;;;;24.00;49.20;;;;;;4973139;28;19915;-58
2021/04/01 01:33:40;;;;;;;;;;;24.00;49.20;;;;;;4973280;28;19910;-58
2021/04/01 01:36:06;;;;;;;;;;;24.00;49.20;;;;;;4973095;28;19910;-58
2021/04/01 01:38:32;;;;;;;;;;;24.00;49.20;;;;;;4973041;28;20424;-59
2021/04/01 01:40:58;;;;;;;;;;;24.00;49.20;;;;;;4972980;28;19914;-59
2021/04/01 01:43:24;;;;;;;;;;;23.90;49.20;;;;;;4972935;28;20368;-59
2021/04/01 01:45:50;;;;;;;;;;;23.90;49.20;;;;;;4972784;28;19961;-59
2021/04/01 01:48:16;;;;;;;;;;;23.90;49.20;;;;;;4972659;28;19917;-59
2021/04/01 01:50:41;;;;;;;;;;;23.90;49.20;;;;;;4974595;28;19906;-59
2021/04/01 01:53:08;;;;;;;;;;;23.90;49.20;;;;;;4976909;28;20329;-59
2021/04/01 01:55:35;;;;;;;;;;;23.90;49.20;;;;;;4976911;28;19968;-59
2021/04/01 01:58:01;;;;;;;;;;;23.90;49.20;;;;;;4976706;28;19925;-59
2021/04/01 02:00:27;;;;;;;;;;;23.90;49.20;;;;;;4976912;28;19906;-58
2021/04/01 02:02:54;;;;;;;;;;;23.90;49.20;;;;;;4976355;28;19910;-59
2021/04/01 02:05:24;;;;;;;;;;;23.90;49.20;;;;;;4958886;28;20315;-59
2021/04/01 02:07:50;;;;;;;;;;;23.90;49.20;;;;;;4976730;28;19973;-58
2021/04/01 02:10:19;;;;;;;;;;;23.90;49.30;;;;;;4976798;28;20427;-58
2021/04/01 02:12:45;;;;;;;;;;;23.90;49.20;;;;;;4958998;28;20025;-58
2021/04/01 02:15:12;;;;;;;;;;;23.90;49.30;;;;;;4976636;28;19997;-59
2021/04/01 02:17:38;;;;;;;;;;;23.90;49.30;;;;;;4976284;28;20387;-59
2021/04/01 02:20:05;;;;;;;;;;;23.90;49.30;;;;;;4959127;28;19968;-59
2021/04/01 02:22:30;;;;;;;;;;;23.80;49.20;;;;;;4976075;28;19925;-59
2021/04/01 02:24:56;;;;;;;;;;;23.90;49.30;;;;;;4976111;28;19910;-59
2021/04/01 02:27:22;;;;;;;;;;;23.90;49.30;;;;;;4975990;28;19929;-59
2021/04/01 02:29:48;;;;;;;;;;;23.80;49.20;;;;;;4976073;28;19910;-57
2021/04/01 02:32:14;;;;;;;;;;;23.80;49.20;;;;;;4975930;28;19917;-58
2021/04/01 02:34:40;;;;;;;;;;;23.80;49.20;;;;;;4975721;28;19906;-57
2021/04/01 02:37:06;;;;;;;;;;;23.90;49.30;;;;;;4975834;28;19917;-58
2021/04/01 02:39:32;;;;;;;;;;;23.90;49.30;;;;;;4975806;28;19913;-58
2021/04/01 02:41:58;;;;;;;;;;;23.90;49.30;;;;;;4975707;28;19996;-58
2021/04/01 02:44:24;;;;;;;;;;;23.90;49.30;;;;;;4975687;28;19958;-58
2021/04/01 02:46:50;;;;;;;;;;;23.90;49.30;;;;;;4975861;28;19910;-58
2021/04/01 02:49:16;;;;;;;;;;;23.90;49.30;;;;;;4975651;28;20348;-58
2021/04/01 02:51:41;;;;;;;;;;;23.80;49.30;;;;;;4975628;28;19914;-58
2021/04/01 02:54:07;;;;;;;;;;;23.80;49.30;;;;;;4975465;28;19910;-58
2021/04/01 02:56:33;;;;;;;;;;;23.80;49.30;;;;;;4975550;28;19910;-59
2021/04/01 02:58:59;;;;;;;;;;;23.80;49.30;;;;;;4975376;28;19906;-58
2021/04/01 03:01:25;;;;;;;;;;;23.90;49.30;;;;;;4973510;28;19910;-59
2021/04/01 03:03:53;;;;;;;;;;;23.80;49.30;;;;;;4976008;28;19922;-59
2021/04/01 03:06:20;;;;;;;;;;;23.80;49.30;;;;;;4976606;28;19922;-59
2021/04/01 03:08:46;;;;;;;;;;;23.80;49.30;;;;;;4976765;28;19914;-59
2021/04/01 03:11:11;;;;;;;;;;;23.80;49.30;;;;;;4976564;28;20357;-58
2021/04/01 03:13:37;;;;;;;;;;;23.80;49.30;;;;;;4976841;28;19910;-58
2021/04/01 03:16:03;;;;;;;;;;;23.80;49.30;;;;;;4976358;28;19910;-58
2021/04/01 03:18:29;;;;;;;;;;;23.80;49.30;;;;;;4976526;28;19993;-58
2021/04/01 03:20:55;;;;;;;;;;;23.80;49.40;;;;;;4976631;28;19980;-58
2021/04/01 03:23:21;;;;;;;;;;;23.90;49.40;;;;;;4976383;28;19906;-58
2021/04/01 03:25:47;;;;;;;;;;;23.80;49.40;;;;;;4976768;28;19914;-59
2021/04/01 03:28:13;;;;;;;;;;;23.80;49.40;;;;;;4958994;28;19910;-59
2021/04/01 03:30:46;;;;;;;;;;;23.80;49.40;;;;;;4976169;28;19980;-58
2021/04/01 03:33:12;;;;;;;;;;;23.80;49.40;;;;;;4976392;28;19910;-58
2021/04/01 03:35:38;;;;;;;;;;;23.80;49.40;;;;;;4976303;28;19917;-58
2021/04/01 03:38:05;;;;;;;;;;;23.80;49.30;;;;;;4976197;28;19910;-58
2021/04/01 03:40:31;;;;;;;;;;;23.80;49.30;;;;;;4976178;28;19909;-58
2021/04/01 03:42:57;;;;;;;;;;;23.80;49.20;;;;;;4958476;28;19913;-58
2021/04/01 03:45:23;;;;;;;;;;;23.80;49.20;;;;;;4976016;28;19914;-58
2021/04/01 03:47:48;;;;;;;;;;;23.80;49.20;;;;;;4975959;28;19906;-59
2021/04/01 03:50:14;;;;;;;;;;;23.70;49.10;;;;;;4958553;28;19910;-58
2021/04/01 03:52:41;;;;;;;;;;;23.70;49.10;;;;;;4975950;28;20303;-59
2021/04/01 03:55:53;;;;;;;;;;;23.70;49.10;;;;;;4975814;28;19910;-58
2021/04/01 04:00:40;;;;;;;;;;;23.70;49.10;;;;;;4975392;28;20025;-58
2021/04/01 04:08:18;;;;;;;;;;;23.60;49.20;;;;;;4975407;28;19980;-58
2021/04/01 04:10:50;;;;;;;;;;;23.60;49.20;;;;;;4975489;28;20019;-58
2021/04/01 04:14:07;;;;;;;;;;;23.60;49.20;;;;;;4958298;28;20008;-57
2021/04/01 04:16:02;;;;;;;;;;;23.60;49.30;;;;;;4965066;28;19910;-58
2021/04/01 04:18:28;;;;;;;;;;;23.60;49.30;;;;;;4975559;28;19944;-58
2021/04/01 04:20:54;;;;;;;;;;;23.60;49.30;;;;;;4975370;28;20033;-58
2021/04/01 04:23:21;;;;;;;;;;;23.60;49.30;;;;;;4975583;28;19917;-59
2021/04/01 04:25:47;;;;;;;;;;;23.60;49.30;;;;;;4975427;28;20327;-58
2021/04/01 04:28:18;;;;;;;;;;;23.60;49.30;;;;;;4975413;28;19914;-58
2021/04/01 04:30:44;;;;;;;;;;;23.60;49.30;;;;;;4975420;28;20001;-58
2021/04/01 04:33:10;;;;;;;;;;;23.60;49.40;;;;;;4975379;28;19988;-58
2021/04/01 04:35:36;;;;;;;;;;;23.50;49.30;;;;;;4975197;28;20269;-58
2021/04/01 04:38:02;;;;;;;;;;;23.50;49.40;;;;;;4975198;28;19971;-58
2021/04/01 04:40:28;;;;;;;;;;;23.50;49.30;;;;;;4975154;28;19964;-58
2021/04/01 04:42:54;;;;;;;;;;;23.50;49.30;;;;;;4975188;28;20383;-59
2021/04/01 04:45:20;;;;;;;;;;;23.50;49.40;;;;;;4957657;28;20305;-58
2021/04/01 04:47:45;;;;;;;;;;;23.60;49.50;;;;;;4975106;28;19918;-59
2021/04/01 04:50:12;;;;;;;;;;;23.50;49.40;;;;;;4973912;28;20368;-58
2021/04/01 04:52:39;;;;;;;;;;;23.50;49.40;;;;;;4975015;28;19906;-57
2021/04/01 04:55:08;;;;;;;;;;;23.50;49.40;;;;;;4974939;28;19910;-58
2021/04/01 05:00:26;;;;;;;;;;;23.50;49.40;;;;;;4957092;28;19993;-59
2021/04/01 05:05:46;;;;;;;;;;;23.50;50.00;;;;;;4933909;29;20413;-59
2021/04/01 05:08:12;;;;;;;;;;;23.50;49.40;;;;;;4953250;28;19952;-59
2021/04/01 05:10:38;;;;;;;;;;;23.50;49.40;;;;;;4974714;28;19914;-59
2021/04/01 05:13:10;;;;;;;;;;;23.50;49.40;;;;;;4974480;28;19957;-59
2021/04/01 05:15:39;;;;;;;;;;;23.50;49.40;;;;;;4974803;28;19961;-59
2021/04/01 05:18:13;;;;;;;;;;;23.50;49.40;;;;;;4974511;28;19961;-60
2021/04/01 05:20:40;;;;;;;;;;;23.50;49.40;;;;;;4974832;28;19972;-58
2021/04/01 05:23:11;;;;;;;;;;;23.50;49.40;;;;;;4974589;28;19992;-58
2021/04/01 05:25:37;;;;;;;;;;;23.50;49.40;;;;;;4976378;28;19921;-59
2021/04/01 05:28:19;;;;;;;;;;;23.50;49.40;;;;;;4978509;28;19906;-57
2021/04/01 05:30:45;;;;;;;;;;;23.50;49.40;;;;;;4978869;28;19910;-57
2021/04/01 05:33:12;;;;;;;;;;;23.50;49.40;;;;;;4978392;28;19929;-57
2021/04/01 05:35:39;;;;;;;;;;;23.50;49.40;;;;;;4978431;28;19960;-57
2021/04/01 05:38:05;;;;;;;;;;;23.50;49.40;;;;;;4978285;28;19985;-58
2021/04/01 05:40:32;;;;;;;;;;;23.50;49.40;;;;;;4978507;28;20041;-58
2021/04/01 05:42:57;;;;;;;;;;;23.50;49.40;;;;;;4978217;28;20350;-58
2021/04/01 05:47:53;;;;;;;;;;;23.50;49.50;;;;;;4978480;28;20363;-58
2021/04/01 05:50:50;;;;;;;;;;;23.50;49.50;;;;;;4978150;28;19948;-58
2021/04/01 05:56:34;;;;;;;;;;;23.50;49.50;;;;;;4978100;28;19910;-58
2021/04/01 06:04:32;;;;;;;;;;;23.50;49.60;;;;;;4917705;29;19923;-58
2021/04/01 06:07:13;;;;;;;;;;;23.50;49.60;;;;;;4880283;29;19919;-58
2021/04/01 06:09:45;;;;;;;;;;;23.50;49.60;;;;;;4899142;29;20321;-57
2021/04/01 06:12:11;;;;;;;;;;;23.50;49.60;;;;;;4898957;29;20027;-58
2021/04/01 06:14:54;;;;;;;;;;;23.50;49.60;;;;;;4899168;29;19908;-58
2021/04/01 06:17:22;;;;;;;;;;;23.50;49.70;;;;;;4898918;29;19912;-58
2021/04/01 06:19:48;;;;;;;;;;;23.40;49.60;;;;;;4899193;29;20282;-58
2021/04/01 06:22:15;;;;;;;;;;;23.50;49.70;;;;;;4898945;29;19922;-58
2021/04/01 06:24:43;;;;;;;;;;;23.50;49.70;;;;;;4898794;29;19954;-58
2021/04/01 06:27:22;;;;;;;;;;;23.50;49.70;;;;;;4898855;29;20855;-57
2021/04/01 06:32:40;;;;;;;;;;;23.50;49.80;;;;;;4941902;28;19910;-58
2021/04/01 06:35:13;;;;;;;;;;;23.50;49.80;;;;;;4977388;28;19906;-58
2021/04/01 06:40:06;;;;;;;;;;;23.60;49.80;;;;;;4976957;28;19947;-58
2021/04/01 06:42:55;;;;;;;;;;;23.50;49.80;;;;;;4976922;28;19905;-57
2021/04/01 06:45:23;;;;;;;;;;;23.50;49.80;;;;;;4967174;28;20057;-57
2021/04/01 06:47:55;;;;;;;;;;;23.50;49.70;;;;;;4977109;28;19961;-59
2021/04/01 06:50:33;;;;;;;;;;;23.50;49.70;;;;;;4943565;28;20372;-58
2021/04/01 06:53:04;;;;;;;;;;;23.50;49.60;;;;;;4977020;28;20004;-58
2021/04/01 06:55:39;;;;;;;;;;;23.60;49.70;;;;;;4976783;28;20441;-58
2021/04/01 06:58:26;;;;;;;;;;;23.50;49.60;;;;;;4958722;28;19933;-58
2021/04/01 07:03:39;;;;;;;;;;;23.50;49.60;;;;;;4976670;28;19918;-58
2021/04/01 07:06:10;;;;;;;;;;;23.50;49.60;;;;;;4976607;28;20293;-59
2021/04/01 07:08:43;;;;;;;;;;;23.50;49.60;;;;;;4976383;28;19914;-59
2021/04/01 07:11:20;;;;;;;;;;;23.50;50.20;;;;;;4976349;28;19918;-58
2021/04/01 07:13:50;;;;;;;;;;;23.50;49.60;;;;;;4976607;28;20387;-58
2021/04/01 07:16:34;;;;;;;;;;;23.50;49.60;;;;;;4976301;28;20407;-55
2021/04/01 07:34:37;;;;;;;;;;;23.50;49.60;;;;;;4975886;28;20356;-58
2021/04/01 07:35:57;;;;;;;;;;;23.50;49.70;;;;;;4975835;28;19957;-58
2021/04/01 07:46:47;;;;;;;;;;;23.60;49.70;;;;;;4974808;28;19910;-59
2021/04/01 07:49:15;;;;;;;;;;;23.60;49.70;;;;;;4974403;28;20000;-59
2021/04/01 07:54:23;;;;;;;;;;;23.60;49.60;;;;;;4975312;28;20379;-67
2021/04/01 07:57:05;;;;;;;;;;;23.60;49.60;;;;;;4975809;28;19910;-68
2021/04/01 08:02:24;;;;;;;;;;;23.70;49.70;;;;;;4975762;28;20005;-64
2021/04/01 08:04:52;;;;;;;;;;;23.70;49.60;;;;;;4975324;28;20024;-64
2021/04/01 08:07:18;;;;;;;;;;;23.70;49.60;;;;;;4975935;28;19965;-65
2021/04/01 08:09:47;;;;;;;;;;;23.70;49.60;;;;;;4958036;28;19921;-66
2021/04/01 08:12:25;;;;;;;;;;;23.80;49.60;;;;;;4957871;28;19914;-66
2021/04/01 08:14:55;;;;;;;;;;;23.80;49.60;;;;;;4974995;28;20068;-66
2021/04/01 08:17:25;;;;;;;;;;;23.90;49.60;;;;;;4975218;28;19910;-61
2021/04/01 08:19:52;;;;;;;;;;;23.80;49.50;;;;;;4975275;28;19914;-60
2021/04/01 08:22:28;;;;;;;;;;;23.90;49.50;;;;;;4975111;28;19910;-61
2021/04/01 08:25:01;;;;;;;;;;;23.90;49.50;;;;;;4975469;28;19914;-60
2021/04/01 08:27:43;;;;;;;;;;;24.00;49.40;;;;;;4973929;28;19910;-60
2021/04/01 08:35:14;;;;;;;;;;;24.10;49.30;;;;;;4974698;28;19914;-60
2021/04/01 08:37:51;;;;;;;;;;;24.10;49.20;;;;;;4974566;28;20009;-61
2021/04/01 08:40:17;;;;;;;;;;;24.20;49.20;;;;;;4974692;28;19910;-58
2021/04/01 08:42:53;;;;;;;;;;;24.20;49.10;;;;;;4974815;28;19906;-58
2021/04/01 08:45:32;;;;;;;;;;;24.20;49.00;;;;;;4974860;28;19952;-60
2021/04/01 08:47:58;;;;;;;;;;;24.30;49.00;;;;;;4974933;28;19914;-58
2021/04/01 08:50:30;;;;;;;;;;;24.30;48.90;;;;;;4975005;28;19961;-58
2021/04/01 08:53:15;;;;;;;;;;;24.30;48.90;;;;;;4974404;28;19968;-59
2021/04/01 08:55:52;;;;;;;;;;;24.30;48.80;;;;;;4974082;28;19917;-59
2021/04/01 08:58:20;;;;;;;;;;;24.40;48.80;;;;;;4974253;28;19940;-59
2021/04/01 09:00:49;;;;;;;;;;;24.40;48.80;;;;;;4956811;28;19910;-59
2021/04/01 09:03:19;;;;;;;;;;;24.50;48.80;;;;;;4974315;28;19914;-60
2021/04/01 09:05:55;;;;;;;;;;;24.50;48.80;;;;;;4974129;28;19918;-60
2021/04/01 09:08:23;;;;;;;;;;;24.50;48.80;;;;;;4974094;28;19945;-60
2021/04/01 09:10:51;;;;;;;;;;;24.60;48.80;;;;;;4972567;28;19918;-62
2021/04/01 09:13:22;;;;;;;;;;;24.60;48.70;;;;;;4972768;28;19917;-63
2021/04/01 09:15:52;;;;;;;;;;;24.60;48.60;;;;;;4972762;28;19914;-60
2021/04/01 09:18:22;;;;;;;;;;;24.70;48.60;;;;;;4972303;28;19940;-60
2021/04/01 09:20:48;;;;;;;;;;;24.70;48.50;;;;;;4973177;28;19917;-58
2021/04/01 09:23:14;;;;;;;;;;;24.70;48.40;;;;;;4974043;28;20268;-58
2021/04/01 09:25:44;;;;;;;;;;;24.80;48.80;;;;;;4957160;28;19929;-60
2021/04/01 09:28:10;;;;;;;;;;;24.80;48.80;;;;;;4974643;28;20014;-60
2021/04/01 09:30:37;;;;;;;;;;;24.80;48.70;;;;;;4957251;28;20412;-60
2021/04/01 09:33:26;;;;;;;;;;;24.90;48.80;;;;;;4974663;28;19914;-60
2021/04/01 09:35:53;;;;;;;;;;;24.90;48.80;;;;;;4974831;28;19937;-60
2021/04/01 09:38:19;;;;;;;;;;;24.90;48.60;;;;;;4974802;28;19914;-60
2021/04/01 09:40:48;;;;;;;;;;;24.90;48.50;;;;;;4957410;28;19996;-60
2021/04/01 09:43:19;;;;;;;;;;;24.90;48.30;;;;;;4974344;28;20005;-59
2021/04/01 09:45:46;;;;;;;;;;;24.90;48.20;;;;;;4974908;28;20332;-61
2021/04/01 09:48:12;;;;;;;;;;;25.00;48.30;;;;;;4974191;28;19932;-61
2021/04/01 09:50:43;;;;;;;;;;;25.00;48.20;;;;;;4974612;28;19914;-61
2021/04/01 09:53:15;;;;;;;;;;;25.00;48.20;;;;;;4974486;28;19921;-62
2021/04/01 09:55:42;;;;;;;;;;;25.00;48.20;;;;;;4974045;28;19918;-61
2021/04/01 09:58:22;;;;;;;;;;;25.00;48.20;;;;;;4973448;28;20276;-61
2021/04/01 10:03:34;;;;;;;;;;;25.10;48.40;;;;;;4972779;28;19914;-62
2021/04/01 10:06:00;;;;;;;;;;;25.10;48.50;;;;;;4974348;28;20307;-59
2021/04/01 10:08:27;;;;;;;;;;;25.10;48.60;;;;;;4974859;28;19910;-59
2021/04/01 10:10:55;;;;;;;;;;;25.20;48.70;;;;;;4975071;28;19964;-60
2021/04/01 10:13:21;;;;;;;;;;;25.20;48.60;;;;;;4977924;28;20004;-60
2021/04/01 10:15:47;;;;;;;;;;;25.30;48.70;;;;;;4976539;28;20001;-59
2021/04/01 10:18:20;;;;;;;;;;;25.40;48.80;;;;;;4977707;28;20246;-59
2021/04/01 10:20:52;;;;;;;;;;;25.50;48.80;;;;;;4977303;28;19917;-57
2021/04/01 10:23:19;;;;;;;;;;;25.60;48.80;;;;;;4977603;28;19937;-58
2021/04/01 10:25:50;;;;;;;;;;;25.70;48.70;;;;;;4977540;28;20386;-59
2021/04/01 10:28:56;;;;;;;;;;;25.80;48.50;;;;;;4977652;28;19910;-58
2021/04/01 10:31:13;;;;;;;;;;;26.00;48.40;;;;;;4972572;28;19910;-60
2021/04/01 10:33:42;;;;;;;;;;;26.10;48.20;;;;;;4975956;28;19917;-61
2021/04/01 10:36:08;;;;;;;;;;;26.30;48.00;;;;;;4977005;28;19910;-60
2021/04/01 10:38:36;;;;;;;;;;;26.40;47.90;;;;;;4976762;28;19910;-59
2021/04/01 10:41:11;;;;;;;;;;;26.50;47.70;;;;;;4959016;28;20390;-58
2021/04/01 10:43:39;;;;;;;;;;;26.70;47.70;;;;;;4976515;28;19949;-58
2021/04/01 10:46:06;;;;;;;;;;;26.80;47.50;;;;;;4943446;28;19910;-58
2021/04/01 10:48:36;;;;;;;;;;;26.90;47.40;;;;;;4958989;28;19933;-60
2021/04/01 10:51:07;;;;;;;;;;;26.90;47.20;;;;;;4959645;28;20267;-59
2021/04/01 10:53:38;;;;;;;;;;;27.00;47.10;;;;;;4959714;28;19980;-61
2021/04/01 10:56:05;;;;;;;;;;;27.10;47.00;;;;;;4977086;28;20372;-58
2021/04/01 10:58:31;;;;;;;;;;;27.20;46.80;;;;;;4976880;28;19996;-60
2021/04/01 11:00:58;;;;;;;;;;;27.20;46.50;;;;;;4976626;28;20009;-60
2021/04/01 11:03:25;;;;;;;;;;;27.20;46.40;;;;;;4976114;28;19965;-60
2021/04/01 11:05:52;;;;;;;;;;;27.30;46.30;;;;;;4958462;28;19929;-60
2021/04/01 11:08:20;;;;;;;;;;;27.40;46.30;;;;;;4976534;28;20021;-60
2021/04/01 11:10:47;;;;;;;;;;;27.40;46.20;;;;;;4976411;28;19910;-59
2021/04/01 11:13:14;;;;;;;;;;;27.50;46.20;;;;;;4976016;28;20001;-59
2021/04/01 11:15:41;;;;;;;;;;;27.60;46.10;;;;;;4976288;28;20272;-59
2021/04/01 11:18:17;;;;;;;;;;;27.70;46.00;;;;;;4976480;28;19910;-60
2021/04/01 11:20:44;;;;;;;;;;;27.80;46.00;;;;;;4959054;28;20411;-60
2021/04/01 11:23:19;;;;;;;;;;;28.00;45.90;;;;;;4975172;28;19946;-59
2021/04/01 11:25:54;;;;;;;;;;;28.10;45.80;;;;;;4975943;28;19914;-59
2021/04/01 11:28:32;;;;;;;;;;;28.30;45.70;;;;;;4959047;28;19910;-60
2021/04/01 11:30:59;;;;;;;;;;;28.40;45.60;;;;;;4976289;28;19933;-60
2021/04/01 11:33:25;;;;;;;;;;;28.60;45.50;;;;;;4976082;28;20008;-59
2021/04/01 11:36:29;;;;;;;;;;;28.80;45.40;;;;;;4976005;28;19917;-60
2021/04/01 11:38:49;;;;;;;;;;;29.00;45.30;;;;;;4972010;28;20392;-60
2021/04/01 11:41:16;;;;;;;;;;;29.20;44.90;;;;;;4958665;28;19910;-60
2021/04/01 11:43:42;;;;;;;;;;;29.40;44.80;;;;;;4976527;28;20240;-61
2021/04/01 11:46:17;;;;;;;;;;;29.60;44.60;;;;;;4975585;28;19921;-61
2021/04/01 11:48:44;;;;;;;;;;;29.80;44.20;;;;;;4976147;28;19925;-60
2021/04/01 11:51:21;;;;;;;;;;;30.00;43.90;;;;;;4975725;28;19945;-60
2021/04/01 11:53:47;;;;;;;;;;;30.10;43.70;;;;;;4975500;28;19910;-61
2021/04/01 11:56:13;;;;;;;;;;;30.30;43.50;;;;;;4975384;28;20076;-60
2021/04/01 11:58:40;;;;;;;;;;;30.50;43.30;;;;;;4975064;28;19961;-58
2021/04/01 12:01:09;;;;;;;;;;;30.70;42.80;;;;;;4957311;28;19917;-57
2021/04/01 12:06:11;;;;;;;;;;;30.90;41.60;;;;;;4974487;28;19961;-58
2021/04/01 12:08:38;;;;;;;;;;;30.80;41.20;;;;;;4975014;28;19964;-58
2021/04/01 12:11:04;;;;;;;;;;;30.70;40.90;;;;;;4974739;28;20261;-58
2021/04/01 12:13:30;;;;;;;;;;;30.60;40.80;;;;;;4974926;28;19933;-58
2021/04/01 12:15:56;;;;;;;;;;;30.40;40.70;;;;;;4974887;28;19957;-58
2021/04/01 12:18:21;;;;;;;;;;;30.30;40.90;;;;;;4974671;28;19914;-58
2021/04/01 12:20:48;;;;;;;;;;;30.10;40.80;;;;;;4974293;28;20304;-58
2021/04/01 12:23:21;;;;;;;;;;;29.90;41.00;;;;;;4974401;28;19941;-58
2021/04/01 12:25:47;;;;;;;;;;;29.70;41.10;;;;;;4974202;28;19969;-57
2021/04/01 12:28:20;;;;;;;;;;;29.60;41.10;;;;;;4974676;28;19994;-58
2021/04/01 12:30:48;;;;;;;;;;;29.40;41.30;;;;;;4974299;28;19910;-57
2021/04/01 12:33:24;;;;;;;;;;;29.30;41.30;;;;;;4974326;28;19910;-58
2021/04/01 12:35:51;;;;;;;;;;;29.20;41.50;;;;;;4974129;28;20222;-58
2021/04/01 12:38:28;;;;;;;;;;;29.00;41.60;;;;;;4974572;28;19973;-58
2021/04/01 12:40:55;;;;;;;;;;;29.00;41.70;;;;;;4973429;28;19910;-58
2021/04/01 12:43:28;;;;;;;;;;;28.90;41.80;;;;;;4973701;28;19949;-58
2021/04/01 12:45:54;;;;;;;;;;;28.80;42.00;;;;;;4973666;28;20287;-58
2021/04/01 12:48:20;;;;;;;;;;;28.70;42.10;;;;;;4973586;28;20257;-58
2021/04/01 12:50:48;;;;;;;;;;;28.60;42.20;;;;;;4973927;28;19914;-58
2021/04/01 12:53:16;;;;;;;;;;;28.50;42.20;;;;;;4974212;28;19914;-57
2021/04/01 12:58:12;;;;;;;;;;;28.40;42.40;;;;;;4972927;28;19921;-58
2021/04/01 13:00:51;;;;;;;;;;;28.30;42.50;;;;;;4956081;28;19914;-58
2021/04/01 13:03:17;;;;;;;;;;;28.30;42.60;;;;;;4974038;28;19914;-58
2021/04/01 13:05:50;;;;;;;;;;;28.30;42.80;;;;;;4973694;28;19941;-57
2021/04/01 13:10:45;;;;;;;;;;;28.20;42.90;;;;;;4973593;28;19964;-58
2021/04/01 13:13:11;;;;;;;;;;;28.20;42.90;;;;;;4974147;28;19910;-58
2021/04/01 13:15:38;;;;;;;;;;;28.10;42.90;;;;;;4974075;28;19958;-58
2021/04/01 13:18:08;;;;;;;;;;;28.10;43.00;;;;;;4974049;28;19957;-57
2021/04/01 13:20:35;;;;;;;;;;;28.10;43.10;;;;;;4974126;28;20256;-58
2021/04/01 13:25:27;;;;;;;;;;;28.00;43.20;;;;;;4973584;28;19932;-58
2021/04/01 13:27:53;;;;;;;;;;;28.00;43.30;;;;;;4973458;28;19910;-59
2021/04/01 13:30:21;;;;;;;;;;;27.90;43.30;;;;;;4973474;28;19973;-59
2021/04/01 13:40:21;;;;;;;;;;;27.80;43.20;;;;;;4973879;28;19910;-58
2021/04/01 13:42:52;;;;;;;;;;;27.80;43.30;;;;;;4973680;28;20420;-57
2021/04/01 13:45:21;;;;;;;;;;;27.80;43.30;;;;;;4973575;28;19913;-57
2021/04/01 13:47:52;;;;;;;;;;;27.80;43.30;;;;;;4976978;28;20266;-58
2021/04/01 13:50:22;;;;;;;;;;;27.80;43.40;;;;;;4976395;28;19938;-58
2021/04/01 13:55:29;;;;;;;;;;;27.70;43.40;;;;;;4977091;28;19910;-59
2021/04/01 14:00:40;;;;;;;;;;;27.70;43.50;;;;;;4960169;28;20372;-59
2021/04/01 14:11:31;;;;;;;;;;;27.60;43.60;;;;;;4976839;28;19917;-58
2021/04/01 14:13:57;;;;;;;;;;;27.60;43.50;;;;;;4975583;28;19906;-59
2021/04/01 14:16:23;;;;;;;;;;;27.60;43.40;;;;;;4976519;28;19910;-57
2021/04/01 14:18:50;;;;;;;;;;;27.60;43.40;;;;;;4976690;28;19910;-56
2021/04/01 14:21:17;;;;;;;;;;;27.60;43.30;;;;;;4976707;28;19910;-58
2021/04/01 14:23:44;;;;;;;;;;;27.60;43.30;;;;;;4976833;28;20281;-57
2021/04/01 14:28:40;;;;;;;;;;;27.60;43.30;;;;;;4976904;28;19960;-57
2021/04/01 14:31:06;;;;;;;;;;;27.60;43.30;;;;;;4977237;28;20008;-57
2021/04/01 14:33:32;;;;;;;;;;;27.60;43.30;;;;;;4958975;28;19909;-57
2021/04/01 14:35:59;;;;;;;;;;;27.50;43.30;;;;;;4976568;28;20005;-57
2021/04/01 14:38:25;;;;;;;;;;;27.60;43.40;;;;;;4976760;28;19949;-57
2021/04/01 14:40:55;;;;;;;;;;;27.60;43.40;;;;;;4959242;28;19980;-58
2021/04/01 14:43:26;;;;;;;;;;;27.60;43.30;;;;;;4976578;28;19994;-58
2021/04/01 14:45:52;;;;;;;;;;;27.60;43.40;;;;;;4976890;28;20005;-57
2021/04/01 14:48:18;;;;;;;;;;;27.60;43.40;;;;;;4943644;28;19910;-58
2021/04/01 14:50:44;;;;;;;;;;;27.60;43.30;;;;;;4976565;28;19933;-57
2021/04/01 14:53:19;;;;;;;;;;;27.60;43.20;;;;;;4976620;28;19906;-57
2021/04/01 14:55:45;;;;;;;;;;;27.60;43.20;;;;;;4976699;28;20353;-56
2021/04/01 14:58:12;;;;;;;;;;;27.60;43.20;;;;;;4976353;28;20004;-55
2021/04/01 15:00:40;;;;;;;;;;;27.50;43.00;;;;;;4976487;28;19945;-56
2021/04/01 15:03:06;;;;;;;;;;;27.50;43.00;;;;;;4959269;28;20000;-57
2021/04/01 15:05:34;;;;;;;;;;;27.50;43.00;;;;;;4976026;28;19917;-55
2021/04/01 15:08:01;;;;;;;;;;;27.40;42.90;;;;;;4958717;28;19969;-56
2021/04/01 15:10:27;;;;;;;;;;;27.40;43.00;;;;;;4976006;28;19910;-55
2021/04/01 15:12:54;;;;;;;;;;;27.40;43.00;;;;;;4975949;28;19917;-57
2021/04/01 15:15:20;;;;;;;;;;;27.30;43.00;;;;;;4976023;28;20276;-56
2021/04/01 15:17:46;;;;;;;;;;;27.30;43.00;;;;;;4976134;28;19994;-56
2021/04/01 15:20:12;;;;;;;;;;;27.30;43.00;;;;;;4975919;28;19906;-56
2021/04/01 15:22:38;;;;;;;;;;;27.20;42.90;;;;;;4975730;28;19914;-56
2021/04/01 15:25:04;;;;;;;;;;;27.20;43.00;;;;;;4975595;28;20339;-55
2021/04/01 15:27:30;;;;;;;;;;;27.20;43.00;;;;;;4975904;28;19961;-56
2021/04/01 15:29:57;;;;;;;;;;;27.10;43.00;;;;;;4975739;28;19910;-57
2021/04/01 15:32:23;;;;;;;;;;;27.10;43.10;;;;;;4975624;28;19910;-55
2021/04/01 15:34:49;;;;;;;;;;;27.00;43.00;;;;;;4974439;28;19965;-56
2021/04/01 15:37:15;;;;;;;;;;;27.00;43.10;;;;;;4975211;28;19976;-56
2021/04/01 15:39:44;;;;;;;;;;;27.00;43.10;;;;;;4974249;28;19906;-56
2021/04/01 15:42:11;;;;;;;;;;;26.90;43.20;;;;;;4975344;28;19945;-56
2021/04/01 15:44:40;;;;;;;;;;;26.80;43.20;;;;;;4975097;28;19920;-58
2021/04/01 15:47:06;;;;;;;;;;;26.80;43.80;;;;;;4974884;28;19906;-56
2021/04/01 15:49:32;;;;;;;;;;;26.70;43.30;;;;;;4975563;28;19917;-56
2021/04/01 15:51:57;;;;;;;;;;;26.70;43.40;;;;;;4958136;28;20308;-56
2021/04/01 15:54:23;;;;;;;;;;;26.70;43.40;;;;;;4975215;28;19913;-56
2021/04/01 15:56:49;;;;;;;;;;;26.60;43.30;;;;;;4975197;28;19902;-56
2021/04/01 15:59:15;;;;;;;;;;;26.60;43.40;;;;;;4975332;28;19953;-56
2021/04/01 16:01:41;;;;;;;;;;;26.60;43.40;;;;;;4957659;28;19906;-55
2021/04/01 16:04:07;;;;;;;;;;;26.50;43.50;;;;;;4974909;28;19937;-56
2021/04/01 16:06:32;;;;;;;;;;;26.50;43.50;;;;;;4975043;28;19965;-57